sensor_id;sensor_type;location;lat;lon;timestamp;temperature;humidity
1958;DHT22;979;51.076;13.748;2022-09-09T00:01:29;17.90;81.40
1958;DHT22;979;51.076;13.748;2022-09-09T00:04:13;17.90;81.10
1958;DHT22;979;51.076;13.748;2022-09-09T00:06:45;17.80;81.30
1958;DHT22;979;51.076;13.748;2022-09-09T00:09:19;17.60;81.10
1958;DHT22;979;51.076;13.748;2022-09-09T00:11:54;17.60;81.30
1958;DHT22;979;51.076;13.748;2022-09-09T00:14:35;17.60;81.40
1958;DHT22;979;51.076;13.748;2022-09-09T00:17:16;17.70;81.60
1958;DHT22;979;51.076;13.748;2022-09-09T00:19:56;17.70;81.80
1958;DHT22;979;51.076;13.748;2022-09-09T00:22:29;17.40;81.70
1958;DHT22;979;51.076;13.748;2022-09-09T00:25:09;17.30;81.50
1958;DHT22;979;51.076;13.748;2022-09-09T00:27:53;17.30;81.70
1958;DHT22;979;51.076;13.748;2022-09-09T00:30:25;17.30;82.00
1958;DHT22;979;51.076;13.748;2022-09-09T00:32:58;17.20;82.10
1958;DHT22;979;51.076;13.748;2022-09-09T00:35:30;17.20;82.10
1958;DHT22;979;51.076;13.748;2022-09-09T00:38:08;17.10;82.20
1958;DHT22;979;51.076;13.748;2022-09-09T00:40:44;17.10;82.40
1958;DHT22;979;51.076;13.748;2022-09-09T00:43:26;17.00;82.20
1958;DHT22;979;51.076;13.748;2022-09-09T00:46:34;17.00;82.30
1958;DHT22;979;51.076;13.748;2022-09-09T00:49:19;17.10;82.50
1958;DHT22;979;51.076;13.748;2022-09-09T00:51:55;16.90;82.80
1958;DHT22;979;51.076;13.748;2022-09-09T00:54:44;16.90;82.30
1958;DHT22;979;51.076;13.748;2022-09-09T00:57:56;16.80;82.30
1958;DHT22;979;51.076;13.748;2022-09-09T01:00:31;17.10;82.70
1958;DHT22;979;51.076;13.748;2022-09-09T01:03:25;16.70;82.20
1958;DHT22;979;51.076;13.748;2022-09-09T01:06:15;16.70;82.30
1958;DHT22;979;51.076;13.748;2022-09-09T01:09:04;16.60;82.20
1958;DHT22;979;51.076;13.748;2022-09-09T01:11:48;16.60;82.30
1958;DHT22;979;51.076;13.748;2022-09-09T01:14:29;16.50;82.20
1958;DHT22;979;51.076;13.748;2022-09-09T01:17:05;16.50;82.50
1958;DHT22;979;51.076;13.748;2022-09-09T01:19:47;16.40;82.70
1958;DHT22;979;51.076;13.748;2022-09-09T01:22:29;16.40;82.70
1958;DHT22;979;51.076;13.748;2022-09-09T01:25:18;16.40;83.50
1958;DHT22;979;51.076;13.748;2022-09-09T01:28:32;16.40;82.80
1958;DHT22;979;51.076;13.748;2022-09-09T01:31:12;16.40;83.00
1958;DHT22;979;51.076;13.748;2022-09-09T01:33:45;16.40;83.20
1958;DHT22;979;51.076;13.748;2022-09-09T01:36:19;16.40;83.90
1958;DHT22;979;51.076;13.748;2022-09-09T01:38:52;16.60;83.30
1958;DHT22;979;51.076;13.748;2022-09-09T01:41:24;16.40;83.40
1958;DHT22;979;51.076;13.748;2022-09-09T01:44:09;16.40;83.40
1958;DHT22;979;51.076;13.748;2022-09-09T01:46:45;16.60;83.60
1958;DHT22;979;51.076;13.748;2022-09-09T01:49:18;16.70;83.90
1958;DHT22;979;51.076;13.748;2022-09-09T01:51:52;16.40;83.50
1958;DHT22;979;51.076;13.748;2022-09-09T01:54:35;16.40;83.40
1958;DHT22;979;51.076;13.748;2022-09-09T01:57:20;16.40;83.70
1958;DHT22;979;51.076;13.748;2022-09-09T02:00:00;16.30;83.50
1958;DHT22;979;51.076;13.748;2022-09-09T02:02:52;16.40;83.40
1958;DHT22;979;51.076;13.748;2022-09-09T02:05:36;16.50;83.60
1958;DHT22;979;51.076;13.748;2022-09-09T02:08:17;16.20;83.50
1958;DHT22;979;51.076;13.748;2022-09-09T02:11:01;16.20;83.50
1958;DHT22;979;51.076;13.748;2022-09-09T02:13:38;16.30;83.60
1958;DHT22;979;51.076;13.748;2022-09-09T02:16:13;16.50;84.00
1958;DHT22;979;51.076;13.748;2022-09-09T02:18:50;16.30;83.60
1958;DHT22;979;51.076;13.748;2022-09-09T02:21:30;16.00;83.50
1958;DHT22;979;51.076;13.748;2022-09-09T02:24:06;16.30;84.00
1958;DHT22;979;51.076;13.748;2022-09-09T02:26:47;16.10;83.70
1958;DHT22;979;51.076;13.748;2022-09-09T02:29:25;16.10;83.80
1958;DHT22;979;51.076;13.748;2022-09-09T02:32:01;16.10;83.90
1958;DHT22;979;51.076;13.748;2022-09-09T02:34:40;16.10;84.10
1958;DHT22;979;51.076;13.748;2022-09-09T02:37:16;16.10;84.00
1958;DHT22;979;51.076;13.748;2022-09-09T02:39:49;16.20;84.10
1958;DHT22;979;51.076;13.748;2022-09-09T02:42:20;16.10;84.30
1958;DHT22;979;51.076;13.748;2022-09-09T02:44:53;16.30;84.50
1958;DHT22;979;51.076;13.748;2022-09-09T02:47:33;16.10;84.50
1958;DHT22;979;51.076;13.748;2022-09-09T02:50:22;16.10;84.30
1958;DHT22;979;51.076;13.748;2022-09-09T02:53:05;16.10;84.20
1958;DHT22;979;51.076;13.748;2022-09-09T02:55:41;16.10;84.20
1958;DHT22;979;51.076;13.748;2022-09-09T02:58:42;16.10;84.50
1958;DHT22;979;51.076;13.748;2022-09-09T03:01:11;16.10;84.80
1958;DHT22;979;51.076;13.748;2022-09-09T03:03:43;16.30;84.80
1958;DHT22;979;51.076;13.748;2022-09-09T03:06:17;16.10;84.80
1958;DHT22;979;51.076;13.748;2022-09-09T03:08:56;16.10;84.60
1958;DHT22;979;51.076;13.748;2022-09-09T03:11:33;16.10;84.60
1958;DHT22;979;51.076;13.748;2022-09-09T03:14:02;16.00;84.40
1958;DHT22;979;51.076;13.748;2022-09-09T03:16:32;16.00;84.80
1958;DHT22;979;51.076;13.748;2022-09-09T03:19:04;16.10;85.00
1958;DHT22;979;51.076;13.748;2022-09-09T03:21:37;16.00;85.10
1958;DHT22;979;51.076;13.748;2022-09-09T03:24:09;16.10;85.10
1958;DHT22;979;51.076;13.748;2022-09-09T03:26:38;16.00;84.80
1958;DHT22;979;51.076;13.748;2022-09-09T03:29:12;16.00;85.20
1958;DHT22;979;51.076;13.748;2022-09-09T03:31:43;16.10;85.30
1958;DHT22;979;51.076;13.748;2022-09-09T03:34:15;16.20;85.70
1958;DHT22;979;51.076;13.748;2022-09-09T03:36:51;15.90;85.30
1958;DHT22;979;51.076;13.748;2022-09-09T03:39:20;15.90;85.60
1958;DHT22;979;51.076;13.748;2022-09-09T03:41:51;16.10;85.70
1958;DHT22;979;51.076;13.748;2022-09-09T03:44:24;15.90;85.50
1958;DHT22;979;51.076;13.748;2022-09-09T03:46:54;15.70;85.60
1958;DHT22;979;51.076;13.748;2022-09-09T03:49:29;15.80;85.50
1958;DHT22;979;51.076;13.748;2022-09-09T03:51:59;15.80;85.70
1958;DHT22;979;51.076;13.748;2022-09-09T03:54:28;15.80;85.60
1958;DHT22;979;51.076;13.748;2022-09-09T03:56:57;15.80;85.90
1958;DHT22;979;51.076;13.748;2022-09-09T03:59:26;15.80;85.70
1958;DHT22;979;51.076;13.748;2022-09-09T04:01:57;16.00;86.20
1958;DHT22;979;51.076;13.748;2022-09-09T04:04:32;15.80;85.90
1958;DHT22;979;51.076;13.748;2022-09-09T04:07:06;15.70;85.90
1958;DHT22;979;51.076;13.748;2022-09-09T04:09:36;16.00;86.20
1958;DHT22;979;51.076;13.748;2022-09-09T04:12:05;15.70;86.00
1958;DHT22;979;51.076;13.748;2022-09-09T04:14:38;15.70;85.90
1958;DHT22;979;51.076;13.748;2022-09-09T04:17:10;15.70;85.90
1958;DHT22;979;51.076;13.748;2022-09-09T04:19:39;15.70;86.20
1958;DHT22;979;51.076;13.748;2022-09-09T04:22:12;15.70;86.30
1958;DHT22;979;51.076;13.748;2022-09-09T04:24:43;15.70;86.10
1958;DHT22;979;51.076;13.748;2022-09-09T04:27:18;15.80;86.20
1958;DHT22;979;51.076;13.748;2022-09-09T04:29:50;15.50;86.00
1958;DHT22;979;51.076;13.748;2022-09-09T04:32:18;15.80;86.40
1958;DHT22;979;51.076;13.748;2022-09-09T04:34:47;15.80;86.10
1958;DHT22;979;51.076;13.748;2022-09-09T04:37:17;15.80;86.10
1958;DHT22;979;51.076;13.748;2022-09-09T04:39:47;15.90;86.50
1958;DHT22;979;51.076;13.748;2022-09-09T04:42:15;15.80;86.30
1958;DHT22;979;51.076;13.748;2022-09-09T04:44:49;15.90;86.50
1958;DHT22;979;51.076;13.748;2022-09-09T04:47:30;15.90;86.70
1958;DHT22;979;51.076;13.748;2022-09-09T04:50:01;16.00;86.40
1958;DHT22;979;51.076;13.748;2022-09-09T05:09:30;16.10;86.20
1958;DHT22;979;51.076;13.748;2022-09-09T05:12:52;16.20;86.70
1958;DHT22;979;51.076;13.748;2022-09-09T05:15:53;16.30;86.60
1958;DHT22;979;51.076;13.748;2022-09-09T05:18:32;16.10;86.50
1958;DHT22;979;51.076;13.748;2022-09-09T05:21:02;16.20;86.90
1958;DHT22;979;51.076;13.748;2022-09-09T05:24:59;16.20;86.60
1958;DHT22;979;51.076;13.748;2022-09-09T05:28:09;16.40;86.40
1958;DHT22;979;51.076;13.748;2022-09-09T05:30:57;16.50;86.50
1958;DHT22;979;51.076;13.748;2022-09-09T05:33:41;16.40;86.40
1958;DHT22;979;51.076;13.748;2022-09-09T05:37:28;16.40;86.50
1958;DHT22;979;51.076;13.748;2022-09-09T05:40:31;16.70;86.10
1958;DHT22;979;51.076;13.748;2022-09-09T05:43:07;16.70;86.20
1958;DHT22;979;51.076;13.748;2022-09-09T05:45:59;16.90;86.70
1958;DHT22;979;51.076;13.748;2022-09-09T05:48:45;16.80;86.20
1958;DHT22;979;51.076;13.748;2022-09-09T05:51:39;17.10;86.30
1958;DHT22;979;51.076;13.748;2022-09-09T05:58:30;17.20;85.80
1958;DHT22;979;51.076;13.748;2022-09-09T06:01:17;17.40;85.60
1958;DHT22;979;51.076;13.748;2022-09-09T06:04:02;17.50;85.50
1958;DHT22;979;51.076;13.748;2022-09-09T06:07:15;17.60;85.30
1958;DHT22;979;51.076;13.748;2022-09-09T06:10:02;17.70;85.20
1958;DHT22;979;51.076;13.748;2022-09-09T06:12:38;17.80;84.80
1958;DHT22;979;51.076;13.748;2022-09-09T06:19:21;18.00;83.90
1958;DHT22;979;51.076;13.748;2022-09-09T06:22:06;18.50;84.20
1958;DHT22;979;51.076;13.748;2022-09-09T06:25:03;18.20;84.00
1958;DHT22;979;51.076;13.748;2022-09-09T06:27:49;18.20;83.40
1958;DHT22;979;51.076;13.748;2022-09-09T06:30:45;18.20;83.40
1958;DHT22;979;51.076;13.748;2022-09-09T06:33:57;18.30;83.30
1958;DHT22;979;51.076;13.748;2022-09-09T07:12:34;19.40;80.50
1958;DHT22;979;51.076;13.748;2022-09-09T07:15:28;19.80;80.20
1958;DHT22;979;51.076;13.748;2022-09-09T07:18:34;19.80;80.20
1958;DHT22;979;51.076;13.748;2022-09-09T07:21:32;20.10;80.00
1958;DHT22;979;51.076;13.748;2022-09-09T07:24:32;20.20;79.90
1958;DHT22;979;51.076;13.748;2022-09-09T07:27:30;20.20;79.70
1958;DHT22;979;51.076;13.748;2022-09-09T11:18:57;25.70;67.20
1958;DHT22;979;51.076;13.748;2022-09-09T11:22:01;25.80;67.00
1958;DHT22;979;51.076;13.748;2022-09-09T11:25:05;25.50;67.40
1958;DHT22;979;51.076;13.748;2022-09-09T11:28:27;25.50;67.40
1958;DHT22;979;51.076;13.748;2022-09-09T11:31:42;25.40;67.10
1958;DHT22;979;51.076;13.748;2022-09-09T12:09:33;26.70;66.80
1958;DHT22;979;51.076;13.748;2022-09-09T12:12:36;29.00;65.90
1958;DHT22;979;51.076;13.748;2022-09-09T12:15:34;31.90;62.70
1958;DHT22;979;51.076;13.748;2022-09-09T12:18:37;33.40;58.40
1958;DHT22;979;51.076;13.748;2022-09-09T12:21:37;33.00;57.10
1958;DHT22;979;51.076;13.748;2022-09-09T12:28:17;31.60;56.10
1958;DHT22;979;51.076;13.748;2022-09-09T12:31:37;30.70;56.90
1958;DHT22;979;51.076;13.748;2022-09-09T12:34:48;29.80;57.60
1958;DHT22;979;51.076;13.748;2022-09-09T12:38:20;29.20;58.80
1958;DHT22;979;51.076;13.748;2022-09-09T12:41:51;28.70;59.60
1958;DHT22;979;51.076;13.748;2022-09-09T12:44:58;29.00;61.60
1958;DHT22;979;51.076;13.748;2022-09-09T12:47:49;31.20;61.20
1958;DHT22;979;51.076;13.748;2022-09-09T12:50:47;33.80;59.10
1958;DHT22;979;51.076;13.748;2022-09-09T12:54:00;36.00;56.60
1958;DHT22;979;51.076;13.748;2022-09-09T12:56:57;37.30;54.60
1958;DHT22;979;51.076;13.748;2022-09-09T12:59:38;38.90;53.40
1958;DHT22;979;51.076;13.748;2022-09-09T13:09:55;41.50;47.90
1958;DHT22;979;51.076;13.748;2022-09-09T13:20:19;36.70;47.80
1958;DHT22;979;51.076;13.748;2022-09-09T13:23:17;35.40;49.10
1958;DHT22;979;51.076;13.748;2022-09-09T13:25:59;34.40;49.70
1958;DHT22;979;51.076;13.748;2022-09-09T13:28:29;33.70;50.00
1958;DHT22;979;51.076;13.748;2022-09-09T13:31:29;33.30;50.70
1958;DHT22;979;51.076;13.748;2022-09-09T13:34:27;32.60;51.40
1958;DHT22;979;51.076;13.748;2022-09-09T13:37:30;32.10;52.00
1958;DHT22;979;51.076;13.748;2022-09-09T13:40:40;31.50;52.40
1958;DHT22;979;51.076;13.748;2022-09-09T14:24:52;29.30;55.00
1958;DHT22;979;51.076;13.748;2022-09-09T14:27:29;29.20;55.30
1958;DHT22;979;51.076;13.748;2022-09-09T14:30:25;29.30;55.00
1958;DHT22;979;51.076;13.748;2022-09-09T14:33:18;29.50;55.00
1958;DHT22;979;51.076;13.748;2022-09-09T14:36:16;29.80;55.10
1958;DHT22;979;51.076;13.748;2022-09-09T14:38:50;30.00;54.90
1958;DHT22;979;51.076;13.748;2022-09-09T14:42:01;30.10;54.80
1958;DHT22;979;51.076;13.748;2022-09-09T14:44:34;30.20;54.60
1958;DHT22;979;51.076;13.748;2022-09-09T14:47:30;30.30;54.80
1958;DHT22;979;51.076;13.748;2022-09-09T14:50:35;30.40;54.90
1958;DHT22;979;51.076;13.748;2022-09-09T14:53:33;30.30;54.70
1958;DHT22;979;51.076;13.748;2022-09-09T14:56:22;30.30;54.70
1958;DHT22;979;51.076;13.748;2022-09-09T14:59:39;30.20;54.60
1958;DHT22;979;51.076;13.748;2022-09-09T15:02:35;29.90;54.90
1958;DHT22;979;51.076;13.748;2022-09-09T15:05:31;29.60;55.00
1958;DHT22;979;51.076;13.748;2022-09-09T15:08:29;29.40;55.80
1958;DHT22;979;51.076;13.748;2022-09-09T15:11:27;29.20;55.50
1958;DHT22;979;51.076;13.748;2022-09-09T15:14:23;29.10;55.90
1958;DHT22;979;51.076;13.748;2022-09-09T15:24:13;28.60;56.30
1958;DHT22;979;51.076;13.748;2022-09-09T15:26:46;28.40;56.70
1958;DHT22;979;51.076;13.748;2022-09-09T15:29:24;28.40;56.30
1958;DHT22;979;51.076;13.748;2022-09-09T15:32:01;28.40;56.20
1958;DHT22;979;51.076;13.748;2022-09-09T15:34:31;28.40;56.00
1958;DHT22;979;51.076;13.748;2022-09-09T15:37:29;28.40;56.50
1958;DHT22;979;51.076;13.748;2022-09-09T15:43:46;28.50;57.00
1958;DHT22;979;51.076;13.748;2022-09-09T15:46:33;28.60;57.10
1958;DHT22;979;51.076;13.748;2022-09-09T15:49:32;28.80;57.00
1958;DHT22;979;51.076;13.748;2022-09-09T15:52:31;28.60;57.00
1958;DHT22;979;51.076;13.748;2022-09-09T15:55:28;28.40;57.60
1958;DHT22;979;51.076;13.748;2022-09-09T15:58:26;28.10;58.30
1958;DHT22;979;51.076;13.748;2022-09-09T16:01:11;27.70;58.30
1958;DHT22;979;51.076;13.748;2022-09-09T16:03:45;27.50;58.90
1958;DHT22;979;51.076;13.748;2022-09-09T16:06:32;27.20;59.10
1958;DHT22;979;51.076;13.748;2022-09-09T16:09:20;26.90;59.50
1958;DHT22;979;51.076;13.748;2022-09-09T16:12:20;26.60;59.70
1958;DHT22;979;51.076;13.748;2022-09-09T16:15:09;26.40;60.30
1958;DHT22;979;51.076;13.748;2022-09-09T16:17:58;26.20;60.30
1958;DHT22;979;51.076;13.748;2022-09-09T16:20:53;26.00;61.00
1958;DHT22;979;51.076;13.748;2022-09-09T16:23:44;25.70;61.00
1958;DHT22;979;51.076;13.748;2022-09-09T16:26:21;25.70;61.30
1958;DHT22;979;51.076;13.748;2022-09-09T16:28:56;25.60;62.10
1958;DHT22;979;51.076;13.748;2022-09-09T16:32:01;25.70;62.50
1958;DHT22;979;51.076;13.748;2022-09-09T16:38:52;26.80;62.30
1958;DHT22;979;51.076;13.748;2022-09-09T16:42:09;27.70;61.40
1958;DHT22;979;51.076;13.748;2022-09-09T16:45:09;28.30;60.40
1958;DHT22;979;51.076;13.748;2022-09-09T16:49:01;28.70;59.70
1958;DHT22;979;51.076;13.748;2022-09-09T16:52:11;29.00;58.90
1958;DHT22;979;51.076;13.748;2022-09-09T16:55:15;29.20;58.70
1958;DHT22;979;51.076;13.748;2022-09-09T16:58:29;29.10;57.70
1958;DHT22;979;51.076;13.748;2022-09-09T17:01:37;28.70;57.20
1958;DHT22;979;51.076;13.748;2022-09-09T17:04:42;28.30;57.10
1958;DHT22;979;51.076;13.748;2022-09-09T17:07:47;27.80;57.10
1958;DHT22;979;51.076;13.748;2022-09-09T17:10:40;27.40;57.80
1958;DHT22;979;51.076;13.748;2022-09-09T17:13:40;26.90;57.60
1958;DHT22;979;51.076;13.748;2022-09-09T17:16:26;26.50;58.20
1958;DHT22;979;51.076;13.748;2022-09-09T17:19:25;26.00;59.10
1958;DHT22;979;51.076;13.748;2022-09-09T17:22:22;25.80;59.70
1958;DHT22;979;51.076;13.748;2022-09-09T17:25:21;25.20;60.00
1958;DHT22;979;51.076;13.748;2022-09-09T17:58:30;22.60;66.00
1958;DHT22;979;51.076;13.748;2022-09-09T18:16:17;22.10;67.80
1958;DHT22;979;51.076;13.748;2022-09-09T18:19:15;22.10;68.00
1958;DHT22;979;51.076;13.748;2022-09-09T18:22:11;22.00;67.90
1958;DHT22;979;51.076;13.748;2022-09-09T18:25:07;21.90;68.30
1958;DHT22;979;51.076;13.748;2022-09-09T18:28:03;21.90;68.70
1958;DHT22;979;51.076;13.748;2022-09-09T18:30:59;21.90;69.00
